createdAt,value
2022-07-29T00:01:19.043Z,101075.28
2022-07-29T00:03:48.170Z,101068.78
2022-07-29T00:06:16.558Z,101079.41
2022-07-29T00:08:45.886Z,101067.44
2022-07-29T00:11:13.837Z,101077.78
2022-07-29T00:13:45.322Z,101091.78
2022-07-29T00:16:17.691Z,101085.34
2022-07-29T00:18:48.833Z,101085.34
2022-07-29T00:21:19.029Z,101098.50
2022-07-29T00:23:48.292Z,101100.56
2022-07-29T00:26:16.066Z,101092.78
2022-07-29T00:28:48.278Z,101093.00
2022-07-29T00:31:16.347Z,101086.69
2022-07-29T00:33:45.117Z,101091.06
2022-07-29T00:36:13.035Z,101091.31
2022-07-29T00:38:40.847Z,101093.28
2022-07-29T00:41:10.170Z,101097.81
2022-07-29T00:43:38.876Z,101097.19
2022-07-29T00:46:06.673Z,101106.81
2022-07-29T00:48:34.602Z,101110.38
2022-07-29T00:51:07.151Z,101100.88
2022-07-29T00:53:36.589Z,101111.34
2022-07-29T00:56:04.987Z,101107.91
2022-07-29T00:58:35.584Z,101100.25
2022-07-29T01:01:03.427Z,101091.72
2022-07-29T01:03:31.630Z,101085.41
2022-07-29T01:06:00.379Z,101081.22
2022-07-29T01:08:29.660Z,101075.38
2022-07-29T01:10:57.836Z,101071.50
2022-07-29T01:13:26.819Z,101064.78
2022-07-29T01:16:08.302Z,101071.25
2022-07-29T01:18:38.281Z,101074.03
2022-07-29T01:21:28.653Z,101073.81
2022-07-29T01:24:13.281Z,101070.41
2022-07-29T01:26:50.071Z,101067.47
2022-07-29T01:29:31.002Z,101083.31
2022-07-29T01:32:08.768Z,101074.44
2022-07-29T01:34:57.087Z,101068.81
2022-07-29T01:37:29.627Z,101067.97
2022-07-29T01:40:00.139Z,101065.19
2022-07-29T01:42:33.205Z,101075.00
2022-07-29T01:45:10.072Z,101060.41
2022-07-29T01:47:43.562Z,101077.69
2022-07-29T01:50:15.914Z,101078.69
2022-07-29T01:52:50.664Z,101079.53
2022-07-29T01:55:21.219Z,101078.69
2022-07-29T01:57:49.898Z,101076.97
2022-07-29T02:00:20.078Z,101076.38
2022-07-29T02:02:50.066Z,101067.84
2022-07-29T02:05:22.430Z,101070.50
2022-07-29T02:07:53.602Z,101079.28
2022-07-29T02:10:26.839Z,101085.63
2022-07-29T02:12:56.319Z,101087.94
2022-07-29T02:15:33.109Z,101077.69
2022-07-29T02:18:06.294Z,101088.16
2022-07-29T02:20:35.297Z,101077.69
2022-07-29T02:23:05.508Z,101082.22
2022-07-29T02:25:37.444Z,101081.34
2022-07-29T02:28:07.380Z,101087.56
2022-07-29T02:30:43.577Z,101078.06
2022-07-29T02:33:18.491Z,101086.09
2022-07-29T02:35:49.163Z,101087.69
2022-07-29T02:38:19.048Z,101094.16
2022-07-29T02:40:49.676Z,101079.88
2022-07-29T02:43:20.148Z,101098.88
2022-07-29T02:45:54.333Z,101098.03
2022-07-29T02:48:39.727Z,101099.00
2022-07-29T02:51:13.566Z,101089.38
2022-07-29T02:54:05.818Z,101082.31
2022-07-29T02:56:35.584Z,101083.28
2022-07-29T02:59:08.908Z,101087.06
2022-07-29T03:01:43.152Z,101084.03
2022-07-29T03:04:14.301Z,101083.28
2022-07-29T03:06:44.343Z,101090.47
2022-07-29T03:09:14.324Z,101086.94
2022-07-29T03:11:49.320Z,101095.94
2022-07-29T03:14:20.475Z,101095.22
2022-07-29T03:16:51.563Z,101098.88
2022-07-29T03:19:20.478Z,101105.06
2022-07-29T03:21:48.310Z,101111.28
2022-07-29T03:24:26.849Z,101114.59
2022-07-29T03:26:56.183Z,101112.00
2022-07-29T03:29:24.754Z,101117.16
2022-07-29T03:32:02.722Z,101118.94
2022-07-29T03:34:31.432Z,101130.66
2022-07-29T03:36:59.420Z,101136.63
2022-07-29T03:39:34.150Z,101131.41
2022-07-29T03:42:03.037Z,101142.00
2022-07-29T03:44:33.105Z,101145.63
2022-07-29T03:47:07.876Z,101145.63
2022-07-29T03:49:38.657Z,101145.63
2022-07-29T03:52:06.799Z,101153.66
2022-07-29T03:54:36.151Z,101146.72
2022-07-29T03:57:06.034Z,101155.72
2022-07-29T03:59:35.503Z,101153.03
2022-07-29T04:02:07.515Z,101156.59
2022-07-29T04:04:35.708Z,101158.41
2022-07-29T04:07:03.764Z,101170.22
2022-07-29T04:09:32.006Z,101159.50
2022-07-29T04:12:03.169Z,101168.25
2022-07-29T04:14:34.919Z,101161.97
2022-07-29T04:17:05.098Z,101168.25
2022-07-29T04:19:33.487Z,101163.66
2022-07-29T04:22:02.107Z,101153.91
2022-07-29T04:24:30.086Z,101156.47
2022-07-29T04:26:57.734Z,101159.75
2022-07-29T04:29:25.797Z,101158.66
2022-07-29T04:31:53.907Z,101158.56
2022-07-29T04:34:23.550Z,101162.72
2022-07-29T04:36:56.497Z,101154.66
2022-07-29T04:39:24.565Z,101158.09
2022-07-29T04:41:52.554Z,101157.97
2022-07-29T04:44:28.401Z,101149.19
2022-07-29T04:46:57.756Z,101154.19
2022-07-29T04:49:27.242Z,101148.09
2022-07-29T04:51:55.192Z,101162.22
2022-07-29T04:54:27.564Z,101158.72
2022-07-29T04:56:55.225Z,101163.59
2022-07-29T05:02:45.079Z,101166.13
2022-07-29T05:05:17.388Z,101164.19
2022-07-29T05:07:45.492Z,101163.59
2022-07-29T05:10:16.711Z,101158.47
2022-07-29T05:12:45.367Z,101157.50
2022-07-29T05:15:13.164Z,101160.19
2022-07-29T05:17:42.407Z,101153.34
2022-07-29T05:20:11.209Z,101157.59
2022-07-29T05:22:42.626Z,101150.53
2022-07-29T05:25:10.596Z,101150.91
2022-07-29T05:27:38.575Z,101157.84
2022-07-29T05:30:07.498Z,101150.03
2022-07-29T05:32:35.088Z,101153.47
2022-07-29T05:35:03.314Z,101139.44
2022-07-29T05:37:31.426Z,101140.06
2022-07-29T05:40:00.641Z,101147.00
2022-07-29T05:42:28.762Z,101153.22
2022-07-29T05:44:57.568Z,101153.84
2022-07-29T05:47:25.722Z,101151.25
2022-07-29T05:49:53.695Z,101152.72
2022-07-29T05:52:21.810Z,101155.19
2022-07-29T05:54:50.467Z,101148.84
2022-07-29T05:57:21.190Z,101144.72
2022-07-29T05:59:52.153Z,101145.31
2022-07-29T06:02:20.138Z,101139.84
2022-07-29T06:04:48.461Z,101139.72
2022-07-29T06:07:16.510Z,101134.72
2022-07-29T06:09:45.486Z,101136.81
2022-07-29T06:12:13.337Z,101134.53
2022-07-29T06:14:42.629Z,101138.19
2022-07-29T06:17:10.282Z,101141.56
2022-07-29T06:19:38.017Z,101139.31
2022-07-29T06:22:06.549Z,101130.97
2022-07-29T06:24:34.806Z,101132.91
2022-07-29T06:27:04.791Z,101135.94
2022-07-29T06:29:35.942Z,101136.16
2022-07-29T06:32:07.012Z,101135.25
2022-07-29T06:34:35.083Z,101134.50
2022-07-29T06:37:07.168Z,101123.28
2022-07-29T06:39:44.960Z,101136.47
2022-07-29T06:42:12.756Z,101132.22
2022-07-29T06:44:41.712Z,101140.28
2022-07-29T06:47:12.446Z,101151.13
2022-07-29T06:49:40.226Z,101143.69
2022-07-29T06:52:07.948Z,101140.88
2022-07-29T06:54:36.614Z,101144.66
2022-07-29T06:57:04.744Z,101141.47
2022-07-29T06:59:35.771Z,101140.03
2022-07-29T07:02:05.837Z,101139.56
2022-07-29T07:04:37.074Z,101143.56
2022-07-29T07:07:04.864Z,101141.19
2022-07-29T07:09:40.646Z,101131.72
2022-07-29T07:12:13.211Z,101148.69
2022-07-29T07:14:44.189Z,101147.69
2022-07-29T07:17:12.018Z,101151.94
2022-07-29T07:19:41.448Z,101147.88
2022-07-29T07:22:12.008Z,101152.91
2022-07-29T07:24:39.647Z,101154.22
2022-07-29T07:27:07.999Z,101160.34
2022-07-29T07:29:35.962Z,101162.91
2022-07-29T07:32:06.128Z,101169.31
2022-07-29T07:34:34.002Z,101175.53
2022-07-29T07:37:03.349Z,101180.69
2022-07-29T07:39:31.592Z,101181.81
2022-07-29T07:41:59.498Z,101191.69
2022-07-29T07:44:27.616Z,101198.91
2022-07-29T07:46:55.392Z,101193.66
2022-07-29T07:49:24.526Z,101191.19
2022-07-29T07:51:52.834Z,101188.31
2022-07-29T07:54:21.986Z,101204.16
2022-07-29T07:56:49.817Z,101199.91
2022-07-29T07:59:20.685Z,101197.47
2022-07-29T08:01:55.576Z,101204.06
2022-07-29T08:04:28.424Z,101210.81
2022-07-29T08:06:56.641Z,101212.50
2022-07-29T08:09:30.290Z,101213.94
2022-07-29T08:11:59.710Z,101217.88
2022-07-29T08:14:27.588Z,101208.78
2022-07-29T08:16:58.199Z,101213.22
2022-07-29T08:19:26.518Z,101219.63
2022-07-29T08:21:55.129Z,101223.44
2022-07-29T08:24:25.035Z,101219.09
2022-07-29T08:26:54.424Z,101221.53
2022-07-29T08:29:23.840Z,101221.34
2022-07-29T08:31:52.179Z,101224.09
2022-07-29T08:34:24.417Z,101229.63
2022-07-29T08:36:59.258Z,101226.84
2022-07-29T08:39:28.383Z,101226.59
2022-07-29T08:41:58.975Z,101235.66
2022-07-29T08:44:30.373Z,101235.66
2022-07-29T08:46:59.245Z,101233.09
2022-07-29T08:49:27.346Z,101243.31
2022-07-29T08:51:58.479Z,101241.63
2022-07-29T08:54:26.977Z,101238.06
2022-07-29T08:56:56.931Z,101242.03
2022-07-29T08:59:28.871Z,101237.38
2022-07-29T09:02:01.248Z,101246.44
2022-07-29T09:04:34.512Z,101250.13
2022-07-29T09:07:06.947Z,101247.69
2022-07-29T09:09:36.283Z,101249.16
2022-07-29T09:12:07.843Z,101252.09
2022-07-29T09:14:41.552Z,101250.81
2022-07-29T09:17:10.824Z,101246.72
2022-07-29T09:19:38.698Z,101242.16
2022-07-29T09:22:30.612Z,101235.09
2022-07-29T09:24:59.876Z,101232.66
2022-07-29T09:27:27.732Z,101221.47
2022-07-29T09:30:01.587Z,101229.50
2022-07-29T09:32:30.857Z,101226.44
2022-07-29T09:35:20.152Z,101220.63
2022-07-29T09:37:48.694Z,101213.97
2022-07-29T09:40:18.740Z,101224.72
2022-07-29T09:42:47.722Z,101219.06
2022-07-29T09:45:29.768Z,101218.59
2022-07-29T09:47:59.584Z,101211.75
2022-07-29T09:50:41.070Z,101217.13
2022-07-29T09:53:13.182Z,101210.16
2022-07-29T09:55:55.545Z,101219.25
2022-07-29T09:58:24.979Z,101221.81
2022-07-29T10:00:55.375Z,101220.94
2022-07-29T10:03:23.522Z,101214.66
2022-07-29T10:06:06.819Z,101220.88
2022-07-29T10:08:34.749Z,101216.88
2022-07-29T10:11:12.286Z,101207.34
2022-07-29T10:13:41.273Z,101210.81
2022-07-29T10:16:12.045Z,101205.31
2022-07-29T10:18:43.095Z,101212.34
2022-07-29T10:21:34.523Z,101217.47
2022-07-29T10:24:02.759Z,101218.72
2022-07-29T10:26:31.367Z,101216.28
2022-07-29T10:29:01.888Z,101212.44
2022-07-29T10:32:00.259Z,101210.22
2022-07-29T10:34:44.075Z,101211.63
2022-07-29T10:37:23.903Z,101211.59
2022-07-29T10:40:03.161Z,101211.88
2022-07-29T10:42:34.372Z,101214.97
2022-07-29T10:45:04.812Z,101207.19
2022-07-29T10:47:38.077Z,101211.72
2022-07-29T10:50:07.455Z,101201.94
2022-07-29T10:53:00.464Z,101206.47
2022-07-29T10:55:33.833Z,101203.91
2022-07-29T11:01:37.083Z,101193.50
2022-07-29T11:04:08.899Z,101193.38
2022-07-29T11:07:09.950Z,101193.09
2022-07-29T11:09:40.575Z,101190.78
2022-07-29T11:12:49.768Z,101190.78
2022-07-29T11:15:19.440Z,101182.00
2022-07-29T11:18:14.959Z,101167.44
2022-07-29T11:20:46.785Z,101166.97
2022-07-29T11:23:20.318Z,101159.63
2022-07-29T11:26:18.925Z,101150.34
2022-07-29T11:28:58.561Z,101151.53
2022-07-29T11:31:37.800Z,101148.19
2022-07-29T11:34:28.134Z,101139.34
2022-07-29T11:37:27.903Z,101140.13
2022-07-29T11:40:14.501Z,101136.28
2022-07-29T11:42:48.126Z,101134.94
2022-07-29T11:45:43.764Z,101136.13
2022-07-29T11:48:29.198Z,101128.00
2022-07-29T11:51:10.987Z,101132.78
2022-07-29T11:53:48.612Z,101129.28
2022-07-29T11:56:25.569Z,101130.81
2022-07-29T11:59:04.866Z,101122.63
2022-07-29T12:01:36.341Z,101126.63
2022-07-29T12:04:06.873Z,101121.34
2022-07-29T12:06:34.865Z,101121.47
2022-07-29T12:09:14.415Z,101130.13
2022-07-29T12:11:47.355Z,101115.94
2022-07-29T12:14:29.719Z,101121.84
2022-07-29T12:16:57.505Z,101112.53
2022-07-29T12:19:26.598Z,101107.97
2022-07-29T12:21:59.740Z,101107.00
2022-07-29T12:24:44.905Z,101112.06
2022-07-29T12:27:18.200Z,101108.06
2022-07-29T12:29:48.849Z,101106.78
2022-07-29T12:32:19.801Z,101106.75
2022-07-29T12:34:48.418Z,101097.31
2022-07-29T12:37:16.252Z,101104.53
2022-07-29T12:39:46.221Z,101098.34
2022-07-29T12:42:18.657Z,101096.03
2022-07-29T12:44:51.203Z,101089.19
2022-07-29T12:47:20.563Z,101089.09
2022-07-29T12:49:49.719Z,101095.72
2022-07-29T12:52:29.200Z,101086.84
2022-07-29T12:54:59.101Z,101085.16
2022-07-29T12:57:27.694Z,101092.25
2022-07-29T13:00:07.314Z,101094.81
2022-07-29T13:02:38.146Z,101085.47
2022-07-29T13:05:07.510Z,101084.47
2022-07-29T13:07:55.221Z,101084.50
2022-07-29T13:10:25.743Z,101087.25
2022-07-29T13:13:04.676Z,101081.00
2022-07-29T13:15:33.257Z,101084.47
2022-07-29T13:18:01.969Z,101078.78
2022-07-29T13:20:30.906Z,101069.34
2022-07-29T13:23:00.674Z,101071.00
2022-07-29T13:25:32.974Z,101081.38
2022-07-29T13:28:01.346Z,101084.28
2022-07-29T13:30:31.688Z,101086.97
2022-07-29T13:32:59.641Z,101073.19
2022-07-29T13:35:27.694Z,101076.41
2022-07-29T13:37:55.424Z,101071.94
2022-07-29T13:40:23.360Z,101074.78
2022-07-29T13:42:59.919Z,101075.22
2022-07-29T13:45:29.090Z,101074.00
2022-07-29T13:48:00.322Z,101072.03
2022-07-29T13:50:28.176Z,101072.91
2022-07-29T13:52:55.850Z,101074.59
2022-07-29T13:55:23.970Z,101072.09
2022-07-29T13:57:51.717Z,101077.09
2022-07-29T14:00:21.128Z,101080.53
2022-07-29T14:02:51.093Z,101073.13
2022-07-29T14:05:20.028Z,101069.41
2022-07-29T14:07:47.740Z,101072.47
2022-07-29T14:10:19.964Z,101080.25
2022-07-29T14:12:47.884Z,101069.47
2022-07-29T14:15:18.234Z,101063.69
2022-07-29T14:17:48.447Z,101069.63
2022-07-29T14:20:16.359Z,101057.59
2022-07-29T14:22:45.724Z,101061.84
2022-07-29T14:25:15.242Z,101066.94
2022-07-29T14:27:46.529Z,101063.88
2022-07-29T14:30:15.002Z,101062.19
2022-07-29T14:32:42.794Z,101059.63
2022-07-29T14:35:12.082Z,101058.56
2022-07-29T14:37:40.817Z,101061.44
2022-07-29T14:40:11.271Z,101059.09
2022-07-29T14:42:39.776Z,101060.09
2022-07-29T14:45:16.818Z,101057.00
2022-07-29T14:47:45.015Z,101054.78
2022-07-29T14:50:14.297Z,101051.53
2022-07-29T14:52:43.640Z,101049.31
2022-07-29T14:55:16.668Z,101038.31
2022-07-29T14:57:48.645Z,101047.19
2022-07-29T15:00:17.615Z,101039.50
2022-07-29T15:03:01.317Z,101043.69
2022-07-29T15:05:33.644Z,101039.41
2022-07-29T15:08:01.378Z,101040.59
2022-07-29T15:10:32.863Z,101039.56
2022-07-29T15:13:00.649Z,101044.81
2022-07-29T15:15:32.656Z,101042.22
2022-07-29T15:18:00.338Z,101040.59
2022-07-29T15:20:28.760Z,101042.00
2022-07-29T15:23:00.264Z,101039.38
2022-07-29T15:25:28.012Z,101035.91
2022-07-29T15:28:01.480Z,101037.75
2022-07-29T15:30:33.410Z,101039.78
2022-07-29T15:33:04.727Z,101035.31
2022-07-29T15:35:33.354Z,101030.72
2022-07-29T15:38:10.700Z,101029.16
2022-07-29T15:40:40.453Z,101033.88
2022-07-29T15:43:15.617Z,101029.44
2022-07-29T15:45:44.290Z,101023.16
2022-07-29T15:48:14.872Z,101027.31
2022-07-29T15:50:43.032Z,101035.75
2022-07-29T15:53:16.278Z,101031.09
2022-07-29T15:55:47.500Z,101031.72
2022-07-29T15:58:15.235Z,101027.34
2022-07-29T16:00:42.948Z,101037.38
2022-07-29T16:03:12.640Z,101026.13
2022-07-29T16:05:40.715Z,101028.22
2022-07-29T16:08:09.770Z,101032.53
2022-07-29T16:10:39.016Z,101033.56
2022-07-29T16:13:07.074Z,101036.38
2022-07-29T16:15:34.706Z,101035.25
2022-07-29T16:18:04.227Z,101035.16
2022-07-29T16:20:33.753Z,101034.09
2022-07-29T16:23:01.547Z,101035.38
2022-07-29T16:25:57.580Z,101033.28
2022-07-29T16:28:20.573Z,101041.00
2022-07-29T16:30:48.895Z,101040.28
2022-07-29T16:33:16.720Z,101042.44
2022-07-29T16:35:44.453Z,101045.28
2022-07-29T16:38:12.700Z,101042.75
2022-07-29T16:40:40.884Z,101045.88
2022-07-29T16:43:08.530Z,101058.66
2022-07-29T16:45:45.133Z,101057.06
2022-07-29T16:48:18.059Z,101052.84
2022-07-29T16:50:46.331Z,101057.66
2022-07-29T16:53:14.106Z,101057.56
2022-07-29T16:55:42.732Z,101058.31
2022-07-29T16:58:10.863Z,101048.81
2022-07-29T17:00:40.294Z,101054.06
2022-07-29T17:03:07.985Z,101042.16
2022-07-29T17:05:50.736Z,101048.13
2022-07-29T17:08:21.841Z,101048.72
2022-07-29T17:10:53.795Z,101048.44
2022-07-29T17:13:21.883Z,101046.50
2022-07-29T17:15:51.405Z,101036.75
2022-07-29T17:18:52.925Z,101038.09
2022-07-29T17:21:21.781Z,101033.53
2022-07-29T17:23:52.710Z,101034.06
2022-07-29T17:26:21.052Z,101044.72
2022-07-29T17:28:48.818Z,101031.38
2022-07-29T17:31:19.321Z,101032.72
2022-07-29T17:33:47.988Z,101037.25
2022-07-29T17:36:15.724Z,101033.22
2022-07-29T17:38:44.168Z,101038.66
2022-07-29T17:41:12.121Z,101042.22
2022-07-29T17:43:39.853Z,101047.75
2022-07-29T17:46:08.629Z,101042.91
2022-07-29T17:48:38.057Z,101033.16
2022-07-29T17:51:06.224Z,101046.31
2022-07-29T17:53:34.146Z,101046.06
2022-07-29T17:56:02.009Z,101054.25
2022-07-29T17:58:30.782Z,101049.16
2022-07-29T18:00:58.770Z,101055.09
2022-07-29T18:03:26.934Z,101053.66
2022-07-29T18:05:56.139Z,101055.38
2022-07-29T18:08:24.059Z,101058.09
2022-07-29T18:10:53.782Z,101059.03
2022-07-29T18:13:22.066Z,101059.03
2022-07-29T18:15:51.441Z,101053.25
2022-07-29T18:18:19.710Z,101063.75
2022-07-29T18:20:47.653Z,101057.38
2022-07-29T18:23:18.509Z,101060.91
2022-07-29T18:25:47.075Z,101066.44
2022-07-29T18:28:15.368Z,101062.88
2022-07-29T18:30:43.243Z,101064.44
2022-07-29T18:33:26.238Z,101063.59
2022-07-29T18:36:10.598Z,101061.75
2022-07-29T18:38:42.140Z,101070.81
2022-07-29T18:41:10.204Z,101052.41
2022-07-29T18:43:38.105Z,101054.50
2022-07-29T18:46:07.238Z,101064.41
2022-07-29T18:48:35.247Z,101059.03
2022-07-29T18:51:09.464Z,101056.75
2022-07-29T18:53:37.626Z,101064.09
2022-07-29T18:56:06.794Z,101063.94
2022-07-29T18:58:35.476Z,101056.75
2022-07-29T19:01:07.947Z,101067.75
2022-07-29T19:03:36.146Z,101062.31
2022-07-29T19:06:06.374Z,101059.28
2022-07-29T19:08:37.065Z,101048.63
2022-07-29T19:11:07.211Z,101054.09
2022-07-29T19:13:34.892Z,101047.41
2022-07-29T19:16:02.922Z,101047.69
2022-07-29T19:18:34.261Z,101055.81
2022-07-29T19:21:01.892Z,101045.66
2022-07-29T19:23:30.489Z,101057.53
2022-07-29T19:25:58.599Z,101049.59
2022-07-29T19:28:28.616Z,101052.00
2022-07-29T19:30:56.963Z,101045.91
2022-07-29T19:33:26.114Z,101050.84
2022-07-29T19:35:55.103Z,101046.81
2022-07-29T19:38:23.540Z,101049.50
2022-07-29T19:40:54.175Z,101050.63
2022-07-29T19:43:49.679Z,101044.31
2022-07-29T19:46:11.527Z,101049.22
2022-07-29T19:48:39.544Z,101048.63
2022-07-29T19:51:07.696Z,101048.63
2022-07-29T19:53:35.651Z,101060.69
2022-07-29T19:56:04.267Z,101060.56
2022-07-29T19:58:32.246Z,101060.69
2022-07-29T20:01:02.063Z,101062.63
2022-07-29T20:03:31.432Z,101056.78
2022-07-29T20:05:59.078Z,101064.00
2022-07-29T20:08:26.950Z,101062.44
2022-07-29T20:10:55.116Z,101067.34
2022-07-29T20:13:25.352Z,101060.53
2022-07-29T20:15:53.428Z,101059.06
2022-07-29T20:18:21.065Z,101058.19
2022-07-29T20:20:51.024Z,101061.88
2022-07-29T20:23:18.762Z,101062.00
2022-07-29T20:25:47.484Z,101062.13
2022-07-29T20:28:15.193Z,101058.38
2022-07-29T20:30:43.776Z,101063.50
2022-07-29T20:33:14.937Z,101052.28
2022-07-29T20:35:44.086Z,101055.84
2022-07-29T20:38:18.038Z,101061.94
2022-07-29T20:40:46.451Z,101059.47
2022-07-29T20:43:14.303Z,101064.47
2022-07-29T20:45:44.524Z,101064.22
2022-07-29T20:48:12.280Z,101064.44
2022-07-29T20:50:42.546Z,101070.75
2022-07-29T20:53:10.377Z,101069.38
2022-07-29T20:55:39.947Z,101076.78
2022-07-29T20:58:07.682Z,101067.53
2022-07-29T21:00:35.451Z,101068.50
2022-07-29T21:03:03.808Z,101075.31
2022-07-29T21:05:32.555Z,101079.44
2022-07-29T21:08:00.340Z,101073.09
2022-07-29T21:10:28.141Z,101068.69
2022-07-29T21:12:58.386Z,101084.56
2022-07-29T21:15:30.104Z,101075.63
2022-07-29T21:17:59.011Z,101090.66
2022-07-29T21:20:27.224Z,101085.28
2022-07-29T21:22:57.854Z,101079.19
2022-07-29T21:25:25.751Z,101082.59
2022-07-29T21:27:54.825Z,101080.75
2022-07-29T21:30:26.557Z,101082.44
2022-07-29T21:32:54.616Z,101090.66
2022-07-29T21:36:01.780Z,101085.41
2022-07-29T21:38:10.525Z,101097.28
2022-07-29T21:40:38.748Z,101095.66
2022-07-29T21:43:07.082Z,101093.38
2022-07-29T21:45:36.632Z,101085.31
2022-07-29T21:48:05.361Z,101094.38
2022-07-29T21:50:33.546Z,101082.03
2022-07-29T21:53:15.967Z,101096.69
2022-07-29T21:55:44.057Z,101091.44
2022-07-29T21:58:12.623Z,101099.00
2022-07-29T22:00:42.494Z,101088.81
2022-07-29T22:03:10.507Z,101085.41
2022-07-29T22:05:38.355Z,101090.78
2022-07-29T22:08:07.033Z,101089.06
2022-07-29T22:10:36.675Z,101092.56
2022-07-29T22:13:04.686Z,101083.69
2022-07-29T22:15:36.793Z,101082.84
2022-07-29T22:18:12.638Z,101086.38
2022-07-29T22:20:50.986Z,101083.94
2022-07-29T22:23:18.926Z,101085.75
2022-07-29T22:25:49.634Z,101085.91
2022-07-29T22:28:19.844Z,101088.72
2022-07-29T22:30:47.854Z,101090.66
2022-07-29T22:33:17.995Z,101088.94
2022-07-29T22:35:49.001Z,101082.28
2022-07-29T22:38:17.317Z,101080.81
2022-07-29T22:40:45.455Z,101081.44
2022-07-29T22:43:13.475Z,101074.63
2022-07-29T22:45:42.150Z,101082.81
2022-07-29T22:48:09.926Z,101075.00
2022-07-29T22:50:39.469Z,101073.06
2022-07-29T22:53:07.188Z,101082.09
2022-07-29T22:55:36.032Z,101068.19
2022-07-29T22:58:04.357Z,101068.91
2022-07-29T23:00:33.420Z,101076.00
2022-07-29T23:03:02.578Z,101081.38
2022-07-29T23:05:30.597Z,101080.47
2022-07-29T23:07:59.906Z,101081.38
2022-07-29T23:10:29.389Z,101083.06
2022-07-29T23:12:57.805Z,101085.00
2022-07-29T23:15:25.666Z,101078.78
2022-07-29T23:17:53.937Z,101078.78
2022-07-29T23:20:22.121Z,101071.59
2022-07-29T23:22:54.489Z,101080.13
2022-07-29T23:25:24.037Z,101079.41
2022-07-29T23:27:55.067Z,101080.25
2022-07-29T23:30:23.435Z,101082.94
2022-07-29T23:32:54.505Z,101087.56
2022-07-29T23:35:24.832Z,101082.19
2022-07-29T23:37:52.599Z,101080.88
2022-07-29T23:40:20.530Z,101082.69
2022-07-29T23:42:49.664Z,101081.97
2022-07-29T23:45:23.171Z,101076.00
2022-07-29T23:48:07.911Z,101078.69
2022-07-29T23:50:35.816Z,101075.53
2022-07-29T23:53:03.565Z,101077.81
2022-07-29T23:55:38.035Z,101075.88
2022-07-29T23:58:08.257Z,101080.75
